sensor_id;sensor_type;location;lat;lon;timestamp;pressure;altitude;pressure_sealevel;temperature;humidity
52953;BME280;38815;55.932;-3.232;2022-10-31T00:00:29;99926.22;;;18.33;65.70
52953;BME280;38815;55.932;-3.232;2022-10-31T00:02:54;99938.25;;;18.33;65.86
52953;BME280;38815;55.932;-3.232;2022-10-31T00:05:19;99934.66;;;18.33;65.90
52953;BME280;38815;55.932;-3.232;2022-10-31T00:07:44;99944.47;;;18.32;65.59
52953;BME280;38815;55.932;-3.232;2022-10-31T00:10:10;99954.22;;;18.31;65.96
52953;BME280;38815;55.932;-3.232;2022-10-31T00:12:35;99957.81;;;18.31;65.77
52953;BME280;38815;55.932;-3.232;2022-10-31T00:15:00;99953.47;;;18.30;66.02
52953;BME280;38815;55.932;-3.232;2022-10-31T00:17:25;99959.69;;;18.29;66.06
52953;BME280;38815;55.932;-3.232;2022-10-31T00:19:51;99968.88;;;18.29;65.71
52953;BME280;38815;55.932;-3.232;2022-10-31T00:22:16;99960.97;;;18.28;65.97
52953;BME280;38815;55.932;-3.232;2022-10-31T00:24:41;99959.47;;;18.27;65.99
52953;BME280;38815;55.932;-3.232;2022-10-31T00:27:06;99958.69;;;18.26;65.76
52953;BME280;38815;55.932;-3.232;2022-10-31T00:29:32;99968.50;;;18.25;65.82
52953;BME280;38815;55.932;-3.232;2022-10-31T00:31:57;99976.19;;;18.25;65.83
52953;BME280;38815;55.932;-3.232;2022-10-31T00:34:22;99983.13;;;18.24;65.76
52953;BME280;38815;55.932;-3.232;2022-10-31T00:36:48;99984.44;;;18.23;65.94
52953;BME280;38815;55.932;-3.232;2022-10-31T00:39:13;99984.44;;;18.23;65.79
52953;BME280;38815;55.932;-3.232;2022-10-31T00:41:38;99985.75;;;18.22;66.18
52953;BME280;38815;55.932;-3.232;2022-10-31T00:44:04;99987.06;;;18.21;65.96
52953;BME280;38815;55.932;-3.232;2022-10-31T00:46:29;99983.47;;;18.20;65.87
52953;BME280;38815;55.932;-3.232;2022-10-31T00:48:54;99991.19;;;18.20;65.93
52953;BME280;38815;55.932;-3.232;2022-10-31T00:51:19;99988.38;;;18.20;65.94
52953;BME280;38815;55.932;-3.232;2022-10-31T00:53:45;99985.56;;;18.20;65.98
52953;BME280;38815;55.932;-3.232;2022-10-31T00:56:10;99984.78;;;18.19;66.39
52953;BME280;38815;55.932;-3.232;2022-10-31T00:58:35;99983.28;;;18.18;66.29
52953;BME280;38815;55.932;-3.232;2022-10-31T01:01:01;99981.75;;;18.17;66.17
52953;BME280;38815;55.932;-3.232;2022-10-31T01:03:27;99984.56;;;18.17;65.96
52953;BME280;38815;55.932;-3.232;2022-10-31T01:06:00;99986.44;;;18.15;66.08
52953;BME280;38815;55.932;-3.232;2022-10-31T01:08:26;99996.97;;;18.14;66.23
52953;BME280;38815;55.932;-3.232;2022-10-31T01:11:10;99996.97;;;18.14;66.15
52953;BME280;38815;55.932;-3.232;2022-10-31T01:13:36;99991.88;;;18.13;66.16
52953;BME280;38815;55.932;-3.232;2022-10-31T01:16:03;99992.63;;;18.13;66.28
52953;BME280;38815;55.932;-3.232;2022-10-31T01:18:28;100001.84;;;18.14;66.07
52953;BME280;38815;55.932;-3.232;2022-10-31T01:21:01;99997.53;;;18.13;66.10
52953;BME280;38815;55.932;-3.232;2022-10-31T01:23:27;99988.28;;;18.12;65.96
52953;BME280;38815;55.932;-3.232;2022-10-31T01:26:08;99991.66;;;18.11;66.11
52953;BME280;38815;55.932;-3.232;2022-10-31T01:28:35;99984.69;;;18.12;66.37
52953;BME280;38815;55.932;-3.232;2022-10-31T01:31:01;99988.84;;;18.11;65.94
52953;BME280;38815;55.932;-3.232;2022-10-31T01:33:26;99992.44;;;18.11;66.18
52953;BME280;38815;55.932;-3.232;2022-10-31T01:35:52;99995.81;;;18.10;66.27
52953;BME280;38815;55.932;-3.232;2022-10-31T01:38:17;100002.75;;;18.09;66.19
52953;BME280;38815;55.932;-3.232;2022-10-31T01:40:42;100002.75;;;18.09;66.05
52953;BME280;38815;55.932;-3.232;2022-10-31T01:43:14;100002.75;;;18.09;66.25
52953;BME280;38815;55.932;-3.232;2022-10-31T01:45:43;100000.47;;;18.07;66.28
52953;BME280;38815;55.932;-3.232;2022-10-31T01:48:16;99998.41;;;18.08;66.00
52953;BME280;38815;55.932;-3.232;2022-10-31T01:50:43;99994.81;;;18.07;66.10
52953;BME280;38815;55.932;-3.232;2022-10-31T01:53:12;99997.66;;;18.07;65.91
52953;BME280;38815;55.932;-3.232;2022-10-31T01:55:38;100002.53;;;18.07;66.09
52953;BME280;38815;55.932;-3.232;2022-10-31T01:58:07;99999.69;;;18.07;66.10
52953;BME280;38815;55.932;-3.232;2022-10-31T02:00:33;100006.66;;;18.06;66.08
52953;BME280;38815;55.932;-3.232;2022-10-31T02:02:58;100013.63;;;18.05;66.23
52953;BME280;38815;55.932;-3.232;2022-10-31T02:05:25;100012.84;;;18.04;66.21
52953;BME280;38815;55.932;-3.232;2022-10-31T02:07:53;100010.03;;;18.04;66.17
52953;BME280;38815;55.932;-3.232;2022-10-31T02:10:21;100002.88;;;18.03;66.20
52953;BME280;38815;55.932;-3.232;2022-10-31T02:12:47;99997.22;;;18.03;65.88
52953;BME280;38815;55.932;-3.232;2022-10-31T02:15:13;100002.88;;;18.03;66.10
52953;BME280;38815;55.932;-3.232;2022-10-31T02:17:38;100007.78;;;18.03;65.97
52953;BME280;38815;55.932;-3.232;2022-10-31T02:22:30;100000.59;;;18.02;65.96
52953;BME280;38815;55.932;-3.232;2022-10-31T02:25:23;100002.69;;;18.01;66.25
52953;BME280;38815;55.932;-3.232;2022-10-31T02:30:17;99999.09;;;18.01;66.40
52953;BME280;38815;55.932;-3.232;2022-10-31T02:40:37;100009.41;;;17.98;66.02
52953;BME280;38815;55.932;-3.232;2022-10-31T02:45:35;100007.13;;;17.97;66.20
52953;BME280;38815;55.932;-3.232;2022-10-31T02:48:04;100003.56;;;17.96;66.18
52953;BME280;38815;55.932;-3.232;2022-10-31T02:50:33;100007.13;;;17.97;66.08
52953;BME280;38815;55.932;-3.232;2022-10-31T02:53:00;99995.09;;;17.96;65.96
52953;BME280;38815;55.932;-3.232;2022-10-31T02:57:51;99995.09;;;17.96;65.76
52953;BME280;38815;55.932;-3.232;2022-10-31T03:00:18;99987.38;;;17.97;65.87
52953;BME280;38815;55.932;-3.232;2022-10-31T03:02:46;99985.13;;;17.95;66.26
52953;BME280;38815;55.932;-3.232;2022-10-31T03:11:01;99989.81;;;17.93;66.13
52953;BME280;38815;55.932;-3.232;2022-10-31T03:15:53;99994.69;;;17.92;66.13
52953;BME280;38815;55.932;-3.232;2022-10-31T03:20:54;99989.03;;;17.92;65.69
52953;BME280;38815;55.932;-3.232;2022-10-31T03:23:22;99984.16;;;17.93;65.65
52953;BME280;38815;55.932;-3.232;2022-10-31T03:25:48;99972.66;;;17.91;66.04
52953;BME280;38815;55.932;-3.232;2022-10-31T03:28:14;99964.22;;;17.91;66.06
52953;BME280;38815;55.932;-3.232;2022-10-31T03:30:41;99967.03;;;17.91;65.85
52953;BME280;38815;55.932;-3.232;2022-10-31T03:33:10;99969.84;;;17.91;65.97
52953;BME280;38815;55.932;-3.232;2022-10-31T03:35:35;99968.31;;;17.90;65.54
52953;BME280;38815;55.932;-3.232;2022-10-31T03:38:01;99968.31;;;17.90;65.76
52953;BME280;38815;55.932;-3.232;2022-10-31T03:40:28;99970.41;;;17.89;65.91
52953;BME280;38815;55.932;-3.232;2022-10-31T03:42:57;99973.97;;;17.90;66.18
52953;BME280;38815;55.932;-3.232;2022-10-31T03:45:25;99978.09;;;17.89;65.93
52953;BME280;38815;55.932;-3.232;2022-10-31T03:47:52;99976.59;;;17.88;65.99
52953;BME280;38815;55.932;-3.232;2022-10-31T03:50:18;99964.56;;;17.87;65.90
52953;BME280;38815;55.932;-3.232;2022-10-31T03:55:19;99972.25;;;17.87;65.99
52953;BME280;38815;55.932;-3.232;2022-10-31T03:57:52;99964.34;;;17.85;66.13
52953;BME280;38815;55.932;-3.232;2022-10-31T04:00:20;99973.56;;;17.86;65.67
52953;BME280;38815;55.932;-3.232;2022-10-31T04:02:50;99972.78;;;17.85;65.75
52953;BME280;38815;55.932;-3.232;2022-10-31T04:05:18;99969.97;;;17.85;65.98
52953;BME280;38815;55.932;-3.232;2022-10-31T04:07:45;99975.63;;;17.85;65.39
52953;BME280;38815;55.932;-3.232;2022-10-31T04:10:13;99979.75;;;17.84;65.76
52953;BME280;38815;55.932;-3.232;2022-10-31T04:12:39;99968.47;;;17.84;65.64
52953;BME280;38815;55.932;-3.232;2022-10-31T04:15:07;99964.91;;;17.84;66.16
52953;BME280;38815;55.932;-3.232;2022-10-31T04:17:34;99960.03;;;17.84;65.59
52953;BME280;38815;55.932;-3.232;2022-10-31T04:20:02;99959.25;;;17.84;65.87
52953;BME280;38815;55.932;-3.232;2022-10-31T04:22:28;99949.25;;;17.83;66.04
52953;BME280;38815;55.932;-3.232;2022-10-31T04:24:53;99952.09;;;17.83;66.04
52953;BME280;38815;55.932;-3.232;2022-10-31T04:27:18;99955.66;;;17.83;65.96
52953;BME280;38815;55.932;-3.232;2022-10-31T04:29:44;99947.22;;;17.83;66.15
52953;BME280;38815;55.932;-3.232;2022-10-31T04:32:09;99953.41;;;17.82;66.07
52953;BME280;38815;55.932;-3.232;2022-10-31T04:34:34;99947.75;;;17.82;66.21
52953;BME280;38815;55.932;-3.232;2022-10-31T04:36:59;99944.72;;;17.80;65.84
52953;BME280;38815;55.932;-3.232;2022-10-31T04:39:25;99950.38;;;17.80;66.38
52953;BME280;38815;55.932;-3.232;2022-10-31T04:41:52;99949.63;;;17.79;66.26
52953;BME280;38815;55.932;-3.232;2022-10-31T04:44:17;99943.22;;;17.79;66.14
52953;BME280;38815;55.932;-3.232;2022-10-31T04:46:43;99944.00;;;17.79;65.98
52953;BME280;38815;55.932;-3.232;2022-10-31T04:49:08;99944.00;;;17.79;66.23
52953;BME280;38815;55.932;-3.232;2022-10-31T04:51:33;99938.34;;;17.79;66.33
52953;BME280;38815;55.932;-3.232;2022-10-31T04:53:58;99940.41;;;17.79;65.93
52953;BME280;38815;55.932;-3.232;2022-10-31T04:56:24;99938.88;;;17.78;66.05
52953;BME280;38815;55.932;-3.232;2022-10-31T04:58:49;99940.97;;;17.77;66.28
52953;BME280;38815;55.932;-3.232;2022-10-31T05:01:14;99943.00;;;17.77;66.33
52953;BME280;38815;55.932;-3.232;2022-10-31T05:03:39;99963.50;;;17.77;66.00
52953;BME280;38815;55.932;-3.232;2022-10-31T05:06:05;99962.75;;;17.77;65.90
52953;BME280;38815;55.932;-3.232;2022-10-31T05:08:30;99961.97;;;17.76;66.07
52953;BME280;38815;55.932;-3.232;2022-10-31T05:10:59;99945.84;;;17.77;66.30
52953;BME280;38815;55.932;-3.232;2022-10-31T05:13:24;99946.38;;;17.75;66.50
52953;BME280;38815;55.932;-3.232;2022-10-31T05:15:49;99948.44;;;17.75;66.32
52953;BME280;38815;55.932;-3.232;2022-10-31T05:18:15;99927.94;;;17.74;65.83
52953;BME280;38815;55.932;-3.232;2022-10-31T05:20:40;99930.75;;;17.74;65.88
52953;BME280;38815;55.932;-3.232;2022-10-31T05:23:05;99926.44;;;17.73;65.91
52953;BME280;38815;55.932;-3.232;2022-10-31T05:25:31;99930.56;;;17.72;66.25
52953;BME280;38815;55.932;-3.232;2022-10-31T05:27:56;99924.94;;;17.72;66.23
52953;BME280;38815;55.932;-3.232;2022-10-31T05:30:28;99912.91;;;17.72;66.07
52953;BME280;38815;55.932;-3.232;2022-10-31T05:32:54;99914.94;;;17.71;66.03
52953;BME280;38815;55.932;-3.232;2022-10-31T05:35:24;99911.38;;;17.71;65.79
52953;BME280;38815;55.932;-3.232;2022-10-31T05:37:50;99910.63;;;17.70;66.04
52953;BME280;38815;55.932;-3.232;2022-10-31T05:40:16;99911.38;;;17.71;66.17
52953;BME280;38815;55.932;-3.232;2022-10-31T05:42:41;99909.88;;;17.70;66.23
52953;BME280;38815;55.932;-3.232;2022-10-31T05:45:08;99908.34;;;17.69;65.89
52953;BME280;38815;55.932;-3.232;2022-10-31T05:47:33;99910.41;;;17.68;66.08
52953;BME280;38815;55.932;-3.232;2022-10-31T05:49:58;99895.56;;;17.68;65.77
52953;BME280;38815;55.932;-3.232;2022-10-31T05:52:24;99902.50;;;17.67;65.78
52953;BME280;38815;55.932;-3.232;2022-10-31T05:54:49;99897.63;;;17.67;66.01
52953;BME280;38815;55.932;-3.232;2022-10-31T05:57:14;99892.00;;;17.67;66.15
52953;BME280;38815;55.932;-3.232;2022-10-31T05:59:39;99885.59;;;17.67;65.79
52953;BME280;38815;55.932;-3.232;2022-10-31T06:02:05;99878.63;;;17.68;65.96
52953;BME280;38815;55.932;-3.232;2022-10-31T06:04:30;99867.56;;;17.70;66.31
52953;BME280;38815;55.932;-3.232;2022-10-31T06:06:56;99858.56;;;17.71;65.97
52953;BME280;38815;55.932;-3.232;2022-10-31T06:09:21;99865.53;;;17.70;66.10
52953;BME280;38815;55.932;-3.232;2022-10-31T06:11:46;99869.06;;;17.71;66.51
52953;BME280;38815;55.932;-3.232;2022-10-31T06:14:12;99881.66;;;17.70;66.52
52953;BME280;38815;55.932;-3.232;2022-10-31T06:16:37;99881.66;;;17.70;66.74
52953;BME280;38815;55.932;-3.232;2022-10-31T06:19:02;99877.34;;;17.69;67.09
52953;BME280;38815;55.932;-3.232;2022-10-31T06:21:27;99882.22;;;17.68;66.77
52953;BME280;38815;55.932;-3.232;2022-10-31T06:23:53;99886.38;;;17.67;66.78
52953;BME280;38815;55.932;-3.232;2022-10-31T06:26:18;99886.38;;;17.67;66.60
52953;BME280;38815;55.932;-3.232;2022-10-31T06:28:43;99887.66;;;17.66;66.40
52953;BME280;38815;55.932;-3.232;2022-10-31T06:31:08;99880.50;;;17.65;66.74
52953;BME280;38815;55.932;-3.232;2022-10-31T06:33:34;99889.69;;;17.66;66.71
52953;BME280;38815;55.932;-3.232;2022-10-31T06:35:59;99891.78;;;17.65;66.77
52953;BME280;38815;55.932;-3.232;2022-10-31T06:38:25;99902.28;;;17.65;66.82
52953;BME280;38815;55.932;-3.232;2022-10-31T06:40:51;99898.16;;;17.66;66.97
52953;BME280;38815;55.932;-3.232;2022-10-31T06:43:16;99895.91;;;17.64;66.76
52953;BME280;38815;55.932;-3.232;2022-10-31T06:45:42;99907.94;;;17.65;66.76
52953;BME280;38815;55.932;-3.232;2022-10-31T06:48:07;99903.63;;;17.64;66.71
52953;BME280;38815;55.932;-3.232;2022-10-31T06:50:32;99902.84;;;17.63;66.68
52953;BME280;38815;55.932;-3.232;2022-10-31T06:52:58;99907.72;;;17.63;66.58
52953;BME280;38815;55.932;-3.232;2022-10-31T06:55:24;99901.31;;;17.62;66.38
52953;BME280;38815;55.932;-3.232;2022-10-31T06:57:51;99899.25;;;17.63;66.36
52953;BME280;38815;55.932;-3.232;2022-10-31T07:00:16;99904.91;;;17.63;66.39
52953;BME280;38815;55.932;-3.232;2022-10-31T07:02:41;99906.97;;;17.62;66.74
52953;BME280;38815;55.932;-3.232;2022-10-31T07:05:07;99913.91;;;17.61;67.06
52953;BME280;38815;55.932;-3.232;2022-10-31T07:07:32;99909.25;;;17.64;66.63
52953;BME280;38815;55.932;-3.232;2022-10-31T07:09:57;99909.25;;;17.64;66.75
52953;BME280;38815;55.932;-3.232;2022-10-31T07:12:22;99909.25;;;17.64;66.48
52953;BME280;38815;55.932;-3.232;2022-10-31T07:14:48;99907.72;;;17.63;66.70
52953;BME280;38815;55.932;-3.232;2022-10-31T07:17:13;99904.91;;;17.63;66.82
52953;BME280;38815;55.932;-3.232;2022-10-31T07:19:38;99902.09;;;17.63;66.70
52953;BME280;38815;55.932;-3.232;2022-10-31T07:22:04;99902.09;;;17.63;66.42
52953;BME280;38815;55.932;-3.232;2022-10-31T07:24:29;99898.50;;;17.62;66.38
52953;BME280;38815;55.932;-3.232;2022-10-31T07:26:55;99902.84;;;17.63;66.50
52953;BME280;38815;55.932;-3.232;2022-10-31T07:29:20;99899.25;;;17.63;66.64
52953;BME280;38815;55.932;-3.232;2022-10-31T07:31:46;99902.84;;;17.63;66.52
52953;BME280;38815;55.932;-3.232;2022-10-31T07:34:11;99898.50;;;17.62;66.76
52953;BME280;38815;55.932;-3.232;2022-10-31T07:36:36;99914.13;;;17.63;66.58
52953;BME280;38815;55.932;-3.232;2022-10-31T07:39:02;99909.44;;;17.66;67.22
52953;BME280;38815;55.932;-3.232;2022-10-31T07:41:27;99923.53;;;17.66;67.10
52953;BME280;38815;55.932;-3.232;2022-10-31T07:43:52;99923.53;;;17.66;66.87
52953;BME280;38815;55.932;-3.232;2022-10-31T07:46:18;99915.28;;;17.68;67.14
52953;BME280;38815;55.932;-3.232;2022-10-31T07:48:43;99931.66;;;17.69;66.66
52953;BME280;38815;55.932;-3.232;2022-10-31T07:51:08;99917.00;;;17.71;67.12
52953;BME280;38815;55.932;-3.232;2022-10-31T07:53:34;99925.66;;;17.73;67.42
52953;BME280;38815;55.932;-3.232;2022-10-31T07:55:59;99913.84;;;17.74;67.46
52953;BME280;38815;55.932;-3.232;2022-10-31T07:58:24;99922.31;;;17.74;67.80
52953;BME280;38815;55.932;-3.232;2022-10-31T08:00:50;99913.09;;;17.74;67.55
52953;BME280;38815;55.932;-3.232;2022-10-31T08:03:16;99911.56;;;17.73;67.26
52953;BME280;38815;55.932;-3.232;2022-10-31T08:05:42;99908.03;;;17.72;66.93
52953;BME280;38815;55.932;-3.232;2022-10-31T08:08:09;99908.03;;;17.72;66.79
52953;BME280;38815;55.932;-3.232;2022-10-31T08:10:35;99893.16;;;17.72;67.32
52953;BME280;38815;55.932;-3.232;2022-10-31T08:13:02;99898.81;;;17.72;67.09
52953;BME280;38815;55.932;-3.232;2022-10-31T08:15:27;99899.34;;;17.70;67.05
52953;BME280;38815;55.932;-3.232;2022-10-31T08:17:53;99902.38;;;17.72;67.42
52953;BME280;38815;55.932;-3.232;2022-10-31T08:20:19;99893.94;;;17.72;67.45
52953;BME280;38815;55.932;-3.232;2022-10-31T08:22:57;99891.09;;;17.72;67.24
52953;BME280;38815;55.932;-3.232;2022-10-31T08:25:23;99886.97;;;17.73;67.16
52953;BME280;38815;55.932;-3.232;2022-10-31T08:27:49;99892.06;;;17.75;67.55
52953;BME280;38815;55.932;-3.232;2022-10-31T08:30:15;99879.28;;;17.74;67.09
52953;BME280;38815;55.932;-3.232;2022-10-31T08:32:40;99899.00;;;17.74;67.35
52953;BME280;38815;55.932;-3.232;2022-10-31T08:35:06;99899.00;;;17.74;67.38
52953;BME280;38815;55.932;-3.232;2022-10-31T08:37:31;99891.84;;;17.73;67.18
52953;BME280;38815;55.932;-3.232;2022-10-31T08:39:56;99886.75;;;17.71;67.21
52953;BME280;38815;55.932;-3.232;2022-10-31T08:42:22;99883.16;;;17.71;67.02
52953;BME280;38815;55.932;-3.232;2022-10-31T08:44:47;99887.53;;;17.72;67.27
52953;BME280;38815;55.932;-3.232;2022-10-31T08:47:12;99885.25;;;17.70;67.09
52953;BME280;38815;55.932;-3.232;2022-10-31T08:49:37;99888.81;;;17.71;67.33
52953;BME280;38815;55.932;-3.232;2022-10-31T08:52:03;99895.00;;;17.69;67.39
52953;BME280;38815;55.932;-3.232;2022-10-31T08:54:28;99888.06;;;17.70;67.26
52953;BME280;38815;55.932;-3.232;2022-10-31T08:56:54;99889.38;;;17.69;66.96
52953;BME280;38815;55.932;-3.232;2022-10-31T08:59:20;99885.81;;;17.69;66.83
52953;BME280;38815;55.932;-3.232;2022-10-31T09:01:45;99879.41;;;17.68;66.98
52953;BME280;38815;55.932;-3.232;2022-10-31T09:04:10;99872.28;;;17.67;66.83
52953;BME280;38815;55.932;-3.232;2022-10-31T09:06:36;99878.63;;;17.68;66.98
52953;BME280;38815;55.932;-3.232;2022-10-31T09:09:01;99881.47;;;17.68;66.90
52953;BME280;38815;55.932;-3.232;2022-10-31T09:11:26;99872.28;;;17.67;67.08
52953;BME280;38815;55.932;-3.232;2022-10-31T09:13:52;99885.59;;;17.67;66.97
52953;BME280;38815;55.932;-3.232;2022-10-31T09:16:17;99886.38;;;17.67;66.80
52953;BME280;38815;55.932;-3.232;2022-10-31T09:18:42;99885.59;;;17.67;66.47
52953;BME280;38815;55.932;-3.232;2022-10-31T09:21:08;99876.38;;;17.66;66.74
52953;BME280;38815;55.932;-3.232;2022-10-31T09:23:33;99871.50;;;17.67;66.54
52953;BME280;38815;55.932;-3.232;2022-10-31T09:25:59;99862.28;;;17.66;66.52
52953;BME280;38815;55.932;-3.232;2022-10-31T09:28:24;99853.06;;;17.66;66.86
52953;BME280;38815;55.932;-3.232;2022-10-31T09:30:51;99857.19;;;17.65;66.95
52953;BME280;38815;55.932;-3.232;2022-10-31T09:33:16;99843.09;;;17.65;66.75
52953;BME280;38815;55.932;-3.232;2022-10-31T09:35:41;99852.31;;;17.65;66.78
52953;BME280;38815;55.932;-3.232;2022-10-31T09:40:36;99835.41;;;17.65;66.69
52953;BME280;38815;55.932;-3.232;2022-10-31T09:45:39;99844.41;;;17.64;66.44
52953;BME280;38815;55.932;-3.232;2022-10-31T09:50:37;99836.69;;;17.64;66.67
52953;BME280;38815;55.932;-3.232;2022-10-31T09:53:05;99859.25;;;17.64;66.44
52953;BME280;38815;55.932;-3.232;2022-10-31T09:55:39;99830.31;;;17.64;66.77
52953;BME280;38815;55.932;-3.232;2022-10-31T09:58:05;99835.97;;;17.64;66.60
52953;BME280;38815;55.932;-3.232;2022-10-31T10:00:32;99831.06;;;17.64;66.54
52953;BME280;38815;55.932;-3.232;2022-10-31T10:08:19;99813.41;;;17.64;66.49
52953;BME280;38815;55.932;-3.232;2022-10-31T10:10:49;99822.59;;;17.64;66.12
52953;BME280;38815;55.932;-3.232;2022-10-31T10:25:42;99777.28;;;17.62;66.16
52953;BME280;38815;55.932;-3.232;2022-10-31T10:33:38;99791.94;;;17.60;65.94
52953;BME280;38815;55.932;-3.232;2022-10-31T10:35:57;99788.56;;;17.62;66.11
52953;BME280;38815;55.932;-3.232;2022-10-31T10:40:49;99763.22;;;17.62;66.30
52953;BME280;38815;55.932;-3.232;2022-10-31T10:50:58;99793.47;;;17.62;66.07
52953;BME280;38815;55.932;-3.232;2022-10-31T10:53:59;99790.09;;;17.63;66.08
52953;BME280;38815;55.932;-3.232;2022-10-31T10:59:21;99788.56;;;17.62;66.12
52953;BME280;38815;55.932;-3.232;2022-10-31T11:01:48;99804.19;;;17.63;66.06
52953;BME280;38815;55.932;-3.232;2022-10-31T11:06:56;99797.03;;;17.62;65.95
52953;BME280;38815;55.932;-3.232;2022-10-31T11:09:21;99791.38;;;17.62;65.75
52953;BME280;38815;55.932;-3.232;2022-10-31T11:11:47;99790.88;;;17.64;65.90
52953;BME280;38815;55.932;-3.232;2022-10-31T11:14:12;99811.88;;;17.63;65.70
52953;BME280;38815;55.932;-3.232;2022-10-31T11:16:39;99812.66;;;17.63;65.78
52953;BME280;38815;55.932;-3.232;2022-10-31T11:19:19;99815.47;;;17.63;65.54
52953;BME280;38815;55.932;-3.232;2022-10-31T11:21:45;99806.25;;;17.63;66.04
52953;BME280;38815;55.932;-3.232;2022-10-31T11:24:18;99807.00;;;17.63;65.67
52953;BME280;38815;55.932;-3.232;2022-10-31T11:26:45;99806.25;;;17.63;65.83
52953;BME280;38815;55.932;-3.232;2022-10-31T11:29:12;99816.03;;;17.62;65.87
52953;BME280;38815;55.932;-3.232;2022-10-31T11:31:38;99803.44;;;17.63;66.00
52953;BME280;38815;55.932;-3.232;2022-10-31T11:34:13;99816.75;;;17.62;65.93
52953;BME280;38815;55.932;-3.232;2022-10-31T11:36:39;99799.09;;;17.62;65.85
52953;BME280;38815;55.932;-3.232;2022-10-31T11:39:13;99811.13;;;17.62;65.85
52953;BME280;38815;55.932;-3.232;2022-10-31T11:41:40;99807.56;;;17.62;65.86
52953;BME280;38815;55.932;-3.232;2022-10-31T11:44:12;99809.06;;;17.63;65.80
52953;BME280;38815;55.932;-3.232;2022-10-31T11:46:42;99802.66;;;17.62;65.57
52953;BME280;38815;55.932;-3.232;2022-10-31T11:49:17;99791.38;;;17.62;65.88
52953;BME280;38815;55.932;-3.232;2022-10-31T11:51:46;99802.66;;;17.62;65.83
52953;BME280;38815;55.932;-3.232;2022-10-31T11:54:17;99809.06;;;17.63;65.68
52953;BME280;38815;55.932;-3.232;2022-10-31T11:56:44;99799.84;;;17.62;65.66
52953;BME280;38815;55.932;-3.232;2022-10-31T11:59:18;99814.72;;;17.63;65.91
52953;BME280;38815;55.932;-3.232;2022-10-31T12:01:46;99809.06;;;17.63;65.95
52953;BME280;38815;55.932;-3.232;2022-10-31T12:04:12;99805.47;;;17.62;65.86
52953;BME280;38815;55.932;-3.232;2022-10-31T12:06:41;99803.44;;;17.63;65.88
52953;BME280;38815;55.932;-3.232;2022-10-31T12:09:50;99813.22;;;17.62;65.61
52953;BME280;38815;55.932;-3.232;2022-10-31T12:22:23;99810.38;;;17.62;65.64
52953;BME280;38815;55.932;-3.232;2022-10-31T12:25:04;99818.06;;;17.61;65.89
52953;BME280;38815;55.932;-3.232;2022-10-31T12:27:37;99829.34;;;17.61;66.01
52953;BME280;38815;55.932;-3.232;2022-10-31T12:30:18;99818.63;;;17.59;66.01
52953;BME280;38815;55.932;-3.232;2022-10-31T12:35:38;99810.94;;;17.60;65.56
52953;BME280;38815;55.932;-3.232;2022-10-31T12:38:12;99815.25;;;17.61;65.81
52953;BME280;38815;55.932;-3.232;2022-10-31T12:45:55;99814.50;;;17.60;65.96
52953;BME280;38815;55.932;-3.232;2022-10-31T12:48:34;99813.75;;;17.60;65.67
52953;BME280;38815;55.932;-3.232;2022-10-31T12:53:42;99799.66;;;17.60;65.96
52953;BME280;38815;55.932;-3.232;2022-10-31T12:56:22;99794.03;;;17.60;65.68
52953;BME280;38815;55.932;-3.232;2022-10-31T12:59:01;99791.75;;;17.58;65.96
52953;BME280;38815;55.932;-3.232;2022-10-31T13:01:32;99793.25;;;17.59;65.68
52953;BME280;38815;55.932;-3.232;2022-10-31T13:04:09;99793.25;;;17.59;65.74
52953;BME280;38815;55.932;-3.232;2022-10-31T13:06:41;99796.09;;;17.59;65.96
52953;BME280;38815;55.932;-3.232;2022-10-31T13:09:10;99781.22;;;17.59;65.81
52953;BME280;38815;55.932;-3.232;2022-10-31T13:11:38;99787.63;;;17.59;65.85
52953;BME280;38815;55.932;-3.232;2022-10-31T13:16:46;99772.03;;;17.58;65.66
52953;BME280;38815;55.932;-3.232;2022-10-31T13:24:33;99761.50;;;17.59;65.63
52953;BME280;38815;55.932;-3.232;2022-10-31T13:27:01;99748.16;;;17.59;65.51
52953;BME280;38815;55.932;-3.232;2022-10-31T13:29:32;99747.75;;;17.55;65.66
52953;BME280;38815;55.932;-3.232;2022-10-31T13:31:59;99748.94;;;17.60;65.58
52953;BME280;38815;55.932;-3.232;2022-10-31T13:34:26;99746.66;;;17.58;65.68
52953;BME280;38815;55.932;-3.232;2022-10-31T13:37:00;99755.84;;;17.59;65.74
52953;BME280;38815;55.932;-3.232;2022-10-31T13:42:37;99741.75;;;17.59;65.70
52953;BME280;38815;55.932;-3.232;2022-10-31T13:44:40;99759.44;;;17.59;65.50
52953;BME280;38815;55.932;-3.232;2022-10-31T13:49:49;99745.91;;;17.58;65.72
52953;BME280;38815;55.932;-3.232;2022-10-31T13:52:17;99748.94;;;17.60;65.46
52953;BME280;38815;55.932;-3.232;2022-10-31T13:54:47;99748.16;;;17.59;65.63
52953;BME280;38815;55.932;-3.232;2022-10-31T13:57:15;99761.72;;;17.61;65.87
52953;BME280;38815;55.932;-3.232;2022-10-31T13:59:45;99747.41;;;17.59;66.15
52953;BME280;38815;55.932;-3.232;2022-10-31T14:02:18;99741.03;;;17.58;66.07
52953;BME280;38815;55.932;-3.232;2022-10-31T14:04:47;99745.13;;;17.57;66.16
52953;BME280;38815;55.932;-3.232;2022-10-31T14:07:14;99740.28;;;17.58;66.31
52953;BME280;38815;55.932;-3.232;2022-10-31T14:12:23;99739.72;;;17.59;66.51
52953;BME280;38815;55.932;-3.232;2022-10-31T14:14:49;99748.16;;;17.59;66.51
52953;BME280;38815;55.932;-3.232;2022-10-31T14:17:20;99750.44;;;17.61;66.36
52953;BME280;38815;55.932;-3.232;2022-10-31T14:19:56;99746.28;;;17.62;66.31
52953;BME280;38815;55.932;-3.232;2022-10-31T14:22:22;99742.19;;;17.63;66.43
52953;BME280;38815;55.932;-3.232;2022-10-31T14:24:48;99747.81;;;17.63;66.35
52953;BME280;38815;55.932;-3.232;2022-10-31T14:29:45;99719.63;;;17.63;66.35
52953;BME280;38815;55.932;-3.232;2022-10-31T14:34:41;99714.75;;;17.64;66.10
52953;BME280;38815;55.932;-3.232;2022-10-31T14:42:05;99699.13;;;17.63;66.43
52953;BME280;38815;55.932;-3.232;2022-10-31T14:44:49;99699.13;;;17.63;66.42
52953;BME280;38815;55.932;-3.232;2022-10-31T14:47:24;99705.53;;;17.63;66.36
52953;BME280;38815;55.932;-3.232;2022-10-31T14:52:35;99700.13;;;17.65;65.97
52953;BME280;38815;55.932;-3.232;2022-10-31T14:55:01;99695.97;;;17.66;66.15
52953;BME280;38815;55.932;-3.232;2022-10-31T14:57:34;99686.97;;;17.68;66.00